INFORMACIÓN METAR y TAF
METAR FOR LIPZ
ADDS - METARS form results

(0329 UTC 23 January 2019)
Data provider http://aviationweather.gov/metar/data/
 
METAR text: LIPZ 230320Z 33006KT 6000 -SN SCT020 BKN050 00/M00 Q1000 NOSIG
Conditions at: LIPZ (VENEZIA/TESSERA , IT) observed 0320 UTC 23 January 2019
Temperature: 0.0°C (32°F)
Dewpoint: 0.0°C (32°F) [RH = 100%]
Pressure (altimeter): 29.53 inches Hg (1000.0 mb)
Winds: from the NNW (330 degrees) at 7 MPH (6 knots; 3.1 m/s)
Visibility: 4 miles ( 6 km)
Ceiling: 5000 feet AGL
Clouds: scattered clouds at 2000 feet AGL
broken clouds at 5000 feet AGL
Weather: -SN  (light snow)

METAR text: LIPZ 230250Z 36005KT 3000 -SN FEW005 SCT010 BKN020 00/M01 Q1001 NOSIG
Conditions at: LIPZ (VENEZIA/TESSERA , IT) observed 0250 UTC 23 January 2019
Temperature: 0.0°C (32°F)
Dewpoint: -1.0°C (30°F) [RH = 93%]
Pressure (altimeter): 29.56 inches Hg (1001.0 mb)
Winds: from the N (360 degrees) at 6 MPH (5 knots; 2.6 m/s)
Visibility: 1.86 miles (2.99 km)
Ceiling: 2000 feet AGL
Clouds: few clouds at 500 feet AGL
scattered clouds at 1000 feet AGL
broken clouds at 2000 feet AGL
Weather: -SN  (light snow)

Forecast for: COR
Text: TAF COR LIPZ 222316Z 2300/2406 03011KT 9999 SCT010 BKN030
Forecast period: 0000 UTC 23 January 2019 to 0600 UTC 24 January 2019
Forecast type: FROM: standard forecast or significant change
Winds: from the NNE (30 degrees) at 13 MPH (11 knots; 5.7 m/s)
Visibility: 6 or more miles 10+ km)
Ceiling: 3000 feet AGL
Clouds: scattered clouds at 1000 feet AGL
broken clouds at 3000 feet AGL
Weather: no significant weather forecast for this period
Text: TEMPO 2300/2308 2000 SN BKN010
Forecast period: 0000 to 0800 UTC 23 January 2019
Forecast type: TEMPORARY: The following changes expected for less than half the time period
Visibility: 1.24 miles (2.00 km)
Ceiling: 1000 feet AGL
Clouds: broken clouds at 1000 feet AGL
Weather: SN  (moderate snow)

 MAPA DE AEROPUERTO

 INFORMACIÓN DE PISTA
Pista 04R Longitud 10827 ft Ancho 148 ft
Elevación 7 ft Umbral desplazado 0 ft Rumbo de pista 42
Pista 22L Longitud 10827 ft Ancho 148 ft
Elevación 7 ft Umbral desplazado 0 ft Rumbo de pista 222
Pista 04L Longitud 9121 ft Ancho 148 ft
Elevación 7 ft Umbral desplazado 308 ft Rumbo de pista 42
Pista 22R Longitud 9121 ft Ancho 148 ft
Elevación 7 ft Umbral desplazado 0 ft Rumbo de pista 222

 FRECUANCIAS DEL AEROPUERTO
Tipo APP Nombre APP Frecuencia 118.9 MHZ
Tipo ATIS Nombre ATIS Frecuencia 122.225 MHZ
Tipo GND Nombre GND Frecuencia 121.7 MHZ
Tipo TWR Nombre TWR Frecuencia 120.2 MHZ

 RADIO AYUDAS DEL AEROPUERTO
Tipo VOR-DME Nombre Tessera Frecuencia 115300 KHZ
Tipo NDB Nombre Venezia Frecuencia 379 KHZ



              


PayPal

©2019 Oasis Virtual Airlines
Simulando desde el 2013

Oasis Líneas Aéreas Virtuales no está relacionada con ninguna compañía real.
Se trata de un entorno virtual de simulación aérea, sin ánimo de lucro.


Visitas: 33573

VAM v2.6.2 [MOD.]